aviador You're here:

KFBG Decoded Metar

FORT BRAGG/SIMMO in NC, USA
Report Time2018-05-25 08:56:00
UTC Time2018-05-25 09:16:37
Flight Rules vfr VFR
WindCalm
Visibility9999 m
Phenomena:N/A
Clouds:Overcast 050 Hf
Expected CloudBase > 400 ft AGL from Temp-Dew spread
Ceiling5,000 ft
Temp20°C (ISA +5)
Dew Point19°C (94% RH)
QNH1020 hPa
Density Alt938 ft
Elevation243 ft
Report Wrong Elevation
Raw Report
KFBG 250856Z AUTO 00000KT 10SM OVC050 20/19 A3011 RMK AO2 SLP197
T01950193 57004 $=

Extra information for KFBG:More info

Metar Taf Metar & Taf Last 4 Metars F.Rules Stats Wind Profile Meteogram Temp Stats Airport Information Weather charts Add Link Nearby VenuesMetar ALERT Operation Metar Decoded Social comments

AIRNAV info for KFBG